createdAt,value
2023-02-28T00:02:49.431Z,6.70
2023-02-28T00:07:51.873Z,5.90
2023-02-28T00:12:55.432Z,6.00
2023-02-28T00:17:56.968Z,5.30
2023-02-28T00:22:58.483Z,4.80
2023-02-28T00:27:59.986Z,4.10
2023-02-28T00:33:01.547Z,4.50
2023-02-28T00:38:03.524Z,7.00
2023-02-28T00:43:05.091Z,8.00
2023-02-28T00:48:07.222Z,6.90
2023-02-28T00:53:08.774Z,6.30
2023-02-28T00:58:10.304Z,5.50
2023-02-28T01:03:11.797Z,5.90
2023-02-28T01:08:14.729Z,6.00
2023-02-28T01:13:16.786Z,5.20
2023-02-28T01:18:18.868Z,19.20
2023-02-28T01:23:22.733Z,9.60
2023-02-28T01:28:24.549Z,7.70
2023-02-28T01:33:26.378Z,7.00
2023-02-28T01:38:28.447Z,9.00
2023-02-28T01:43:52.053Z,8.30
2023-02-28T01:49:12.616Z,7.00
2023-02-28T01:54:19.282Z,7.60
2023-02-28T01:59:41.566Z,7.40
2023-02-28T02:04:52.636Z,5.80
2023-02-28T02:10:03.150Z,6.90
2023-02-28T02:15:20.037Z,7.20
2023-02-28T02:20:43.165Z,5.60
2023-02-28T02:25:50.925Z,5.10
2023-02-28T02:31:23.550Z,7.20
2023-02-28T02:36:37.317Z,6.30
2023-02-28T02:41:54.970Z,5.20
2023-02-28T02:47:03.013Z,5.40
2023-02-28T02:52:09.418Z,7.00
2023-02-28T02:57:16.872Z,5.50
2023-02-28T03:02:20.026Z,6.40
2023-02-28T03:07:21.746Z,7.80
2023-02-28T03:12:51.325Z,5.90
2023-02-28T03:18:09.605Z,27.10
2023-02-28T03:23:14.595Z,14.70
2023-02-28T03:28:23.986Z,11.70
2023-02-28T03:33:35.697Z,10.90
2023-02-28T03:38:45.066Z,8.70
2023-02-28T03:43:53.017Z,10.80
2023-02-28T03:49:13.216Z,11.60
2023-02-28T03:54:20.345Z,8.90
2023-02-28T03:59:31.584Z,9.50
2023-02-28T04:04:33.328Z,10.70
2023-02-28T04:09:35.207Z,8.00
2023-02-28T04:14:36.726Z,7.70
2023-02-28T04:19:38.303Z,7.40
2023-02-28T04:24:42.414Z,8.40
2023-02-28T04:29:45.561Z,9.20
2023-02-28T04:34:47.066Z,26.20
2023-02-28T04:39:48.509Z,17.30
2023-02-28T04:44:50.018Z,14.90
2023-02-28T04:49:51.557Z,16.60
2023-02-28T04:54:53.025Z,14.20
2023-02-28T04:59:54.521Z,14.50
2023-02-28T05:04:56.101Z,11.20
2023-02-28T05:09:57.625Z,12.30
2023-02-28T05:14:59.113Z,10.80
2023-02-28T05:20:13.413Z,9.40
2023-02-28T05:25:20.122Z,9.90
2023-02-28T05:35:23.095Z,11.20
2023-02-28T05:40:24.702Z,10.70
2023-02-28T05:45:26.204Z,33.20
2023-02-28T05:50:27.666Z,16.70
2023-02-28T05:55:29.234Z,13.70
2023-02-28T06:00:30.732Z,13.70
2023-02-28T06:05:32.298Z,16.00
2023-02-28T06:10:37.053Z,13.80
2023-02-28T06:15:38.801Z,22.40
2023-02-28T06:20:40.458Z,13.40
2023-02-28T06:25:46.326Z,14.30
2023-02-28T06:30:47.934Z,14.80
2023-02-28T06:35:53.179Z,9.60
2023-02-28T06:40:56.203Z,6.40
2023-02-28T06:46:00.293Z,38.70
2023-02-28T06:51:08.370Z,13.60
2023-02-28T06:56:12.544Z,16.20
2023-02-28T07:01:15.080Z,12.10
2023-02-28T07:06:19.003Z,11.40
2023-02-28T07:11:23.535Z,7.40
2023-02-28T07:16:26.462Z,10.00
2023-02-28T07:21:28.484Z,10.40
2023-02-28T07:26:30.312Z,9.00
2023-02-28T07:31:32.188Z,10.30
2023-02-28T07:36:34.026Z,9.10
2023-02-28T07:41:38.591Z,8.90
2023-02-28T07:46:40.166Z,7.60
2023-02-28T07:51:41.660Z,4.60
2023-02-28T07:56:43.155Z,7.90
2023-02-28T08:01:45.691Z,6.90
2023-02-28T08:06:47.205Z,8.30
2023-02-28T08:11:48.672Z,7.00
2023-02-28T08:16:50.285Z,7.70
2023-02-28T08:21:51.728Z,6.00
2023-02-28T08:26:53.185Z,8.60
2023-02-28T08:31:54.774Z,6.70
2023-02-28T08:36:56.720Z,4.80
2023-02-28T08:42:07.201Z,6.60
2023-02-28T08:47:09.441Z,7.90
2023-02-28T08:52:11.135Z,6.10
2023-02-28T08:57:12.635Z,8.00
2023-02-28T09:02:15.365Z,5.10
2023-02-28T09:07:16.941Z,5.00
2023-02-28T09:12:18.427Z,5.80
2023-02-28T09:17:20.517Z,6.80
2023-02-28T09:22:22.463Z,6.20
2023-02-28T09:27:23.933Z,5.60
2023-02-28T09:32:25.461Z,6.10
2023-02-28T09:37:31.828Z,6.00
2023-02-28T09:42:35.422Z,4.40
2023-02-28T09:47:43.757Z,9.30
2023-02-28T09:52:50.998Z,5.80
2023-02-28T09:57:53.668Z,5.60
2023-02-28T10:02:55.091Z,6.60
2023-02-28T10:08:17.099Z,6.70
2023-02-28T10:13:46.595Z,6.50
2023-02-28T10:19:03.355Z,6.90
2023-02-28T10:24:16.834Z,7.30
2023-02-28T10:29:18.323Z,6.40
2023-02-28T10:34:19.775Z,7.90
2023-02-28T10:39:43.487Z,6.80
2023-02-28T10:44:45.033Z,5.80
2023-02-28T10:49:53.411Z,6.20
2023-02-28T10:55:16.076Z,5.50
2023-02-28T11:00:23.027Z,4.90
2023-02-28T11:05:33.894Z,5.90
2023-02-28T11:10:35.859Z,7.00
2023-02-28T11:15:37.992Z,7.10
2023-02-28T11:20:41.319Z,7.60
2023-02-28T11:25:59.584Z,5.10
2023-02-28T11:31:05.993Z,4.20
2023-02-28T11:36:14.138Z,5.70
2023-02-28T11:41:54.247Z,4.00
2023-02-28T11:47:01.753Z,10.30
2023-02-28T11:52:15.305Z,4.80
2023-02-28T11:57:31.788Z,5.70
2023-02-28T12:03:12.317Z,6.30
2023-02-28T12:08:32.909Z,6.20
2023-02-28T12:13:56.414Z,8.50
2023-02-28T12:19:16.957Z,7.30
2023-02-28T12:24:18.753Z,7.10
2023-02-28T12:29:26.118Z,5.40
2023-02-28T12:34:34.296Z,6.40
2023-02-28T12:39:50.271Z,8.20
2023-02-28T12:45:34.244Z,7.20
2023-02-28T12:50:37.173Z,8.40
2023-02-28T12:55:57.830Z,7.00
2023-02-28T13:01:29.102Z,6.40
2023-02-28T13:06:33.959Z,10.10
2023-02-28T13:11:43.701Z,7.40
2023-02-28T13:17:09.924Z,10.30
2023-02-28T13:22:40.356Z,6.40
2023-02-28T13:27:42.904Z,6.10
2023-02-28T13:32:44.542Z,8.60
2023-02-28T13:37:50.811Z,5.30
2023-02-28T13:42:53.531Z,7.70
2023-02-28T13:48:03.840Z,8.30
2023-02-28T13:58:28.404Z,7.80
2023-02-28T14:03:35.670Z,6.00
2023-02-28T14:08:37.791Z,6.20
2023-02-28T14:13:46.231Z,7.80
2023-02-28T14:18:56.533Z,6.00
2023-02-28T14:29:46.761Z,8.70
2023-02-28T14:40:18.927Z,8.10
2023-02-28T14:45:22.198Z,7.30
2023-02-28T14:50:30.693Z,9.90
2023-02-28T14:55:36.079Z,9.00
2023-02-28T15:00:48.483Z,9.10
2023-02-28T15:05:58.589Z,6.70
2023-02-28T15:16:07.146Z,7.40
2023-02-28T15:21:14.411Z,7.20
2023-02-28T15:26:23.673Z,7.30
2023-02-28T15:31:46.824Z,9.30
2023-02-28T15:36:55.556Z,6.70
2023-02-28T15:42:18.769Z,5.90
2023-02-28T15:47:26.947Z,6.70
2023-02-28T15:52:37.405Z,7.90
2023-02-28T15:57:41.890Z,8.30
2023-02-28T16:02:43.584Z,9.10
2023-02-28T16:07:46.061Z,12.90
2023-02-28T16:12:47.649Z,8.20
2023-02-28T16:17:50.472Z,6.90
2023-02-28T16:22:53.002Z,9.90
2023-02-28T16:27:55.871Z,7.90
2023-02-28T16:32:57.364Z,6.10
2023-02-28T16:37:58.868Z,7.50
2023-02-28T16:43:01.767Z,6.80
2023-02-28T16:48:03.532Z,4.90
2023-02-28T16:53:06.396Z,5.30
2023-02-28T16:58:08.027Z,5.30
2023-02-28T17:03:32.696Z,8.20
2023-02-28T17:08:35.983Z,22.80
2023-02-28T17:13:37.453Z,22.60
2023-02-28T17:18:40.447Z,33.00
2023-02-28T17:23:42.489Z,32.00
2023-02-28T17:28:44.549Z,21.50
2023-02-28T17:33:46.134Z,17.50
2023-02-28T17:38:47.629Z,20.10
2023-02-28T17:43:51.236Z,13.80
2023-02-28T17:48:54.384Z,13.90
2023-02-28T17:53:55.822Z,14.20
2023-02-28T17:58:58.178Z,15.50
2023-02-28T18:03:59.708Z,40.70
2023-02-28T18:09:01.173Z,22.90
2023-02-28T18:14:02.669Z,28.70
2023-02-28T18:19:04.335Z,27.30
2023-02-28T18:24:06.124Z,27.80
2023-02-28T18:29:08.822Z,31.80
2023-02-28T18:34:10.293Z,27.30
2023-02-28T18:39:12.162Z,33.90
2023-02-28T18:44:19.769Z,38.70
2023-02-28T18:49:22.554Z,20.60
2023-02-28T18:54:24.080Z,27.10
2023-02-28T18:59:26.036Z,22.50
2023-02-28T19:04:27.664Z,32.80
2023-02-28T19:09:29.178Z,26.00
2023-02-28T19:14:30.701Z,27.40
2023-02-28T19:19:32.260Z,27.20
2023-02-28T19:24:33.719Z,24.90
2023-02-28T19:29:35.317Z,35.20
2023-02-28T19:34:36.767Z,32.90
2023-02-28T19:39:41.214Z,16.50
2023-02-28T19:44:44.041Z,16.40
2023-02-28T19:49:45.608Z,15.20
2023-02-28T19:54:47.425Z,15.80
2023-02-28T19:59:49.986Z,12.90
2023-02-28T20:04:52.178Z,13.20
2023-02-28T20:09:53.833Z,15.30
2023-02-28T20:14:59.835Z,69.90
2023-02-28T20:20:01.684Z,38.50
2023-02-28T20:25:03.843Z,29.30
2023-02-28T20:30:06.289Z,33.70
2023-02-28T20:35:11.533Z,36.70
2023-02-28T20:40:14.401Z,42.00
2023-02-28T20:45:16.000Z,31.70
2023-02-28T20:50:17.686Z,33.00
2023-02-28T20:55:19.133Z,24.40
2023-02-28T21:00:22.472Z,28.00
2023-02-28T21:05:24.313Z,37.00
2023-02-28T21:10:25.825Z,23.90
2023-02-28T21:15:27.309Z,30.00
2023-02-28T21:20:28.991Z,24.50
2023-02-28T21:25:30.533Z,25.20
2023-02-28T21:30:32.010Z,20.40
2023-02-28T21:35:34.281Z,23.80
2023-02-28T21:40:35.848Z,28.50
2023-02-28T21:45:37.376Z,49.80
2023-02-28T21:50:38.905Z,38.40
2023-02-28T21:55:40.339Z,36.50
2023-02-28T22:00:41.801Z,40.60
2023-02-28T22:05:43.305Z,31.00
2023-02-28T22:10:44.781Z,32.20
2023-02-28T22:15:46.291Z,27.70
2023-02-28T22:20:55.006Z,21.50
2023-02-28T22:25:57.386Z,21.50
2023-02-28T22:31:00.274Z,19.00
2023-02-28T22:36:06.087Z,22.80
2023-02-28T22:41:08.788Z,38.80
2023-02-28T22:46:13.172Z,37.60
2023-02-28T22:51:17.813Z,34.40
2023-02-28T22:56:21.272Z,26.90
2023-02-28T23:01:25.014Z,26.00
2023-02-28T23:06:33.051Z,24.30
2023-02-28T23:11:38.783Z,29.50
2023-02-28T23:16:46.143Z,23.10
2023-02-28T23:21:48.138Z,36.30
2023-02-28T23:26:53.757Z,27.20
2023-02-28T23:31:56.251Z,27.60
2023-02-28T23:37:00.505Z,25.80
2023-02-28T23:42:02.135Z,25.90
2023-02-28T23:47:03.703Z,25.70
2023-02-28T23:52:05.828Z,25.80
2023-02-28T23:57:07.670Z,20.40
